MSR1015 HEAT-OEJN
Flight info
| Callsign | MSR1015 |
|---|---|
| Flight time | N/A |
| Altitude | 37000 |
| Route | ASPEK1A ASPEK DCT NABED A727 LXR M999 MUVOL |
| Aircraft | A359/H-SDE2E3GHIJ3J4J5LM1ORWXY/LB1D1 |
Departure
| Time | 2026-04-24 10:40 |
|---|---|
| Airport | Asyut International Airport (HEAT) |
Arrival
| Time | N/A |
|---|---|
| Airport | King Abdulaziz International Airport (OEJN) |
| Time | Latitude | Longitude | Altitude | Speed | Heading |
|---|---|---|---|---|---|
| 2026-04-24 10:34 | 27.05221 | 31.01191 | 765 ft | 0 kts | 37° |
| 2026-04-24 10:34 | 27.05219 | 31.01189 | 765 ft | 1 kts | 38° |
| 2026-04-24 10:35 | 27.05208 | 31.01179 | 765 ft | 3 kts | 60° |
| 2026-04-24 10:35 | 27.05203 | 31.01168 | 765 ft | 3 kts | 97° |
| 2026-04-24 10:35 | 27.05207 | 31.01153 | 765 ft | 3 kts | 127° |
| 2026-04-24 10:35 | 27.05220 | 31.01136 | 765 ft | 3 kts | 132° |
| 2026-04-24 10:36 | 27.05231 | 31.01122 | 764 ft | 1 kts | 129° |
| 2026-04-24 10:36 | 27.05235 | 31.01117 | 764 ft | 0 kts | 129° |
| 2026-04-24 10:38 | 27.03798 | 31.02340 | 789 ft | 0 kts | 310° |
| 2026-04-24 10:40 | 27.03858 | 31.02259 | 788 ft | 52 kts | 310° |
| 2026-04-24 10:40 | 27.04309 | 31.01656 | 777 ft | 149 kts | 309° |
| 2026-04-24 10:40 | 27.05157 | 31.00562 | 1085 ft | 205 kts | 313° |
| 2026-04-24 10:40 | 27.06091 | 30.99375 | 2352 ft | 208 kts | 313° |
| 2026-04-24 10:41 | 27.07075 | 30.98058 | 3421 ft | 229 kts | 311° |
| 2026-04-24 10:41 | 27.08121 | 30.96627 | 4487 ft | 248 kts | 310° |
| 2026-04-24 10:41 | 27.09255 | 30.95092 | 5732 ft | 262 kts | 311° |
| 2026-04-24 10:41 | 27.10704 | 30.93836 | 6975 ft | 271 kts | 338° |
| 2026-04-24 10:42 | 27.12588 | 30.93584 | 8203 ft | 273 kts | 8° |
| 2026-04-24 10:42 | 27.14310 | 30.94418 | 8865 ft | 274 kts | 38° |
| 2026-04-24 10:42 | 27.15468 | 30.96129 | 9136 ft | 288 kts | 64° |
| 2026-04-24 10:42 | 27.16317 | 30.98209 | 9502 ft | 296 kts | 65° |
| 2026-04-24 10:43 | 27.17244 | 31.00303 | 10017 ft | 300 kts | 62° |
| 2026-04-24 10:43 | 27.18274 | 31.02391 | 10351 ft | 311 kts | 60° |
| 2026-04-24 10:43 | 27.19386 | 31.04508 | 10602 ft | 324 kts | 59° |
| 2026-04-24 10:43 | 27.20574 | 31.06694 | 10836 ft | 336 kts | 58° |
| 2026-04-24 10:44 | 27.21844 | 31.08991 | 11098 ft | 347 kts | 58° |
| 2026-04-24 10:44 | 27.23112 | 31.11310 | 11370 ft | 356 kts | 60° |
| 2026-04-24 10:44 | 27.23971 | 31.13966 | 11556 ft | 365 kts | 83° |
| 2026-04-24 10:44 | 27.23847 | 31.16795 | 11822 ft | 370 kts | 106° |
| 2026-04-24 10:45 | 27.22920 | 31.19502 | 12224 ft | 372 kts | 116° |
| 2026-04-24 10:45 | 27.21877 | 31.22165 | 12628 ft | 375 kts | 115° |
| 2026-04-24 10:45 | 27.20889 | 31.24874 | 12983 ft | 378 kts | 113° |
| 2026-04-24 10:45 | 27.19931 | 31.27639 | 13347 ft | 381 kts | 112° |
| 2026-04-24 10:46 | 27.18986 | 31.30460 | 13735 ft | 383 kts | 112° |
| 2026-04-24 10:46 | 27.18070 | 31.33237 | 14080 ft | 385 kts | 112° |
| 2026-04-24 10:46 | 27.17137 | 31.36089 | 14455 ft | 388 kts | 112° |
| 2026-04-24 10:46 | 27.16210 | 31.38941 | 14814 ft | 390 kts | 112° |
| 2026-04-24 10:47 | 27.15274 | 31.41822 | 15167 ft | 392 kts | 112° |
| 2026-04-24 10:47 | 27.14361 | 31.44675 | 15499 ft | 396 kts | 111° |
| 2026-04-24 10:47 | 27.13693 | 31.47718 | 15844 ft | 400 kts | 99° |
| 2026-04-24 10:47 | 27.13649 | 31.50878 | 16181 ft | 406 kts | 85° |
| 2026-04-24 10:48 | 27.14091 | 31.53984 | 16534 ft | 409 kts | 80° |
| 2026-04-24 10:48 | 27.14721 | 31.57129 | 16860 ft | 412 kts | 77° |
| 2026-04-24 10:48 | 27.15432 | 31.60269 | 17177 ft | 415 kts | 77° |
| 2026-04-24 10:48 | 27.16158 | 31.63379 | 17521 ft | 417 kts | 77° |
| 2026-04-24 10:49 | 27.16893 | 31.66562 | 17846 ft | 420 kts | 77° |
| 2026-04-24 10:49 | 27.17615 | 31.69768 | 18181 ft | 422 kts | 77° |
| 2026-04-24 10:49 | 27.18310 | 31.72945 | 18515 ft | 423 kts | 78° |
| 2026-04-24 10:49 | 27.19009 | 31.76190 | 18849 ft | 425 kts | 78° |
| 2026-04-24 10:50 | 27.19693 | 31.79401 | 19167 ft | 427 kts | 78° |
| 2026-04-24 10:50 | 27.20385 | 31.82658 | 19489 ft | 429 kts | 78° |
| 2026-04-24 10:50 | 27.21071 | 31.85904 | 19809 ft | 430 kts | 78° |
| 2026-04-24 10:50 | 27.21769 | 31.89201 | 20118 ft | 432 kts | 78° |
| 2026-04-24 10:51 | 27.22469 | 31.92511 | 20426 ft | 434 kts | 78° |
| 2026-04-24 10:51 | 27.23162 | 31.95797 | 20721 ft | 436 kts | 78° |
| 2026-04-24 10:51 | 27.23853 | 31.99080 | 21006 ft | 438 kts | 78° |
| 2026-04-24 10:51 | 27.24556 | 32.02421 | 21294 ft | 439 kts | 78° |
| 2026-04-24 10:52 | 27.25266 | 32.05798 | 21569 ft | 442 kts | 78° |
| 2026-04-24 10:52 | 27.25970 | 32.09136 | 21839 ft | 443 kts | 78° |
| 2026-04-24 10:52 | 27.26687 | 32.12535 | 22106 ft | 445 kts | 78° |
| 2026-04-24 10:52 | 27.27384 | 32.15904 | 22359 ft | 447 kts | 79° |
| 2026-04-24 10:53 | 27.27816 | 32.19383 | 22623 ft | 446 kts | 88° |
| 2026-04-24 10:53 | 27.27758 | 32.22875 | 22887 ft | 445 kts | 98° |
| 2026-04-24 10:53 | 27.27163 | 32.26239 | 23132 ft | 443 kts | 109° |
| 2026-04-24 10:53 | 27.26000 | 32.29456 | 23390 ft | 440 kts | 120° |
| 2026-04-24 10:54 | 27.24352 | 32.32303 | 23638 ft | 438 kts | 131° |
| 2026-04-24 10:54 | 27.22236 | 32.34769 | 23874 ft | 435 kts | 142° |
| 2026-04-24 10:54 | 27.19804 | 32.36705 | 24117 ft | 433 kts | 153° |
| 2026-04-24 10:54 | 27.17058 | 32.38131 | 24345 ft | 431 kts | 163° |
| 2026-04-24 10:55 | 27.14146 | 32.38959 | 24600 ft | 429 kts | 173° |
| 2026-04-24 10:55 | 27.11209 | 32.39182 | 24842 ft | 427 kts | 183° |
| 2026-04-24 10:55 | 27.08238 | 32.38815 | 25098 ft | 426 kts | 192° |
| 2026-04-24 10:55 | 27.05334 | 32.38298 | 25325 ft | 428 kts | 188° |
| 2026-04-24 10:56 | 27.02339 | 32.38089 | 25585 ft | 431 kts | 181° |
| 2026-04-24 10:56 | 26.99345 | 32.38385 | 25852 ft | 434 kts | 173° |
| 2026-04-24 10:56 | 26.96396 | 32.39054 | 26127 ft | 436 kts | 169° |
| 2026-04-24 10:56 | 26.93434 | 32.39895 | 26375 ft | 438 kts | 168° |
| 2026-04-24 10:57 | 26.90481 | 32.40825 | 26628 ft | 440 kts | 167° |
| 2026-04-24 10:57 | 26.88529 | 32.41461 | 26793 ft | 441 kts | 167° |
| 2026-04-24 10:57 | 26.84624 | 32.42741 | 26707 ft | 439 kts | 167° |
| 2026-04-24 10:57 | 26.81688 | 32.43689 | 26850 ft | 442 kts | 167° |
| 2026-04-24 10:58 | 26.79728 | 32.44317 | 27034 ft | 443 kts | 167° |
| 2026-04-24 10:58 | 26.76753 | 32.45261 | 27326 ft | 443 kts | 167° |
| 2026-04-24 10:58 | 26.73783 | 32.46197 | 27585 ft | 444 kts | 168° |
| 2026-04-24 10:58 | 26.70807 | 32.47130 | 27833 ft | 446 kts | 168° |
| 2026-04-24 10:59 | 26.67821 | 32.48063 | 28110 ft | 447 kts | 168° |
| 2026-04-24 10:59 | 26.64808 | 32.49002 | 28396 ft | 448 kts | 168° |
| 2026-04-24 10:59 | 26.61824 | 32.49934 | 28649 ft | 449 kts | 168° |
| 2026-04-24 10:59 | 26.58794 | 32.50880 | 28929 ft | 451 kts | 168° |
| 2026-04-24 11:00 | 26.55767 | 32.51824 | 29194 ft | 452 kts | 168° |
| 2026-04-24 11:00 | 26.52775 | 32.52757 | 29484 ft | 453 kts | 168° |
| 2026-04-24 11:00 | 26.49718 | 32.53710 | 29780 ft | 454 kts | 168° |
| 2026-04-24 11:00 | 26.46653 | 32.54665 | 30067 ft | 455 kts | 168° |
| 2026-04-24 11:01 | 26.43636 | 32.55605 | 30358 ft | 456 kts | 168° |
| 2026-04-24 11:01 | 26.40528 | 32.56573 | 30614 ft | 458 kts | 169° |
| 2026-04-24 11:01 | 26.37491 | 32.57518 | 30865 ft | 460 kts | 169° |
| 2026-04-24 11:01 | 26.34400 | 32.58478 | 31103 ft | 462 kts | 169° |
| 2026-04-24 11:02 | 26.31288 | 32.59445 | 31371 ft | 463 kts | 169° |
| 2026-04-24 11:02 | 26.28161 | 32.60415 | 31631 ft | 465 kts | 169° |
| 2026-04-24 11:02 | 26.25033 | 32.61386 | 31864 ft | 467 kts | 169° |
| 2026-04-24 11:02 | 26.21891 | 32.62362 | 32058 ft | 469 kts | 170° |
| 2026-04-24 11:03 | 26.18760 | 32.63332 | 32274 ft | 470 kts | 170° |
| 2026-04-24 11:03 | 26.15584 | 32.64316 | 32496 ft | 472 kts | 170° |
| 2026-04-24 11:03 | 26.12440 | 32.65288 | 32670 ft | 474 kts | 170° |
| 2026-04-24 11:03 | 26.09244 | 32.66279 | 32955 ft | 473 kts | 170° |
| 2026-04-24 11:04 | 26.06100 | 32.67256 | 33281 ft | 472 kts | 171° |
| 2026-04-24 11:04 | 26.02917 | 32.68242 | 33556 ft | 472 kts | 171° |
| 2026-04-24 11:04 | 25.99796 | 32.69206 | 33793 ft | 472 kts | 171° |
| 2026-04-24 11:04 | 25.96611 | 32.70191 | 34143 ft | 470 kts | 172° |
| 2026-04-24 11:05 | 25.93451 | 32.71168 | 34484 ft | 469 kts | 172° |
| 2026-04-24 11:05 | 25.90336 | 32.72129 | 34742 ft | 470 kts | 172° |
| 2026-04-24 11:05 | 25.87153 | 32.73107 | 34953 ft | 472 kts | 173° |
| 2026-04-24 11:05 | 25.83983 | 32.74080 | 35269 ft | 472 kts | 173° |
| 2026-04-24 11:06 | 25.80848 | 32.75165 | 35522 ft | 479 kts | 168° |
| 2026-04-24 11:06 | 25.77769 | 32.76728 | 35765 ft | 490 kts | 160° |
| 2026-04-24 11:06 | 25.74910 | 32.78827 | 36020 ft | 503 kts | 150° |
| 2026-04-24 11:06 | 25.72342 | 32.81498 | 36227 ft | 518 kts | 140° |
| 2026-04-24 11:07 | 25.68045 | 32.88086 | 36644 ft | 532 kts | 131° |
| 2026-04-24 11:07 | 25.66027 | 32.91524 | 36800 ft | 534 kts | 131° |
| 2026-04-24 11:07 | 25.64010 | 32.95004 | 36838 ft | 530 kts | 131° |
| 2026-04-24 11:08 | 25.60031 | 33.01816 | 36817 ft | 525 kts | 131° |
| 2026-04-24 11:08 | 25.56010 | 33.08577 | 36834 ft | 524 kts | 132° |
| 2026-04-24 11:09 | 25.51997 | 33.15261 | 36833 ft | 523 kts | 132° |
| 2026-04-24 11:09 | 25.47962 | 33.21966 | 36831 ft | 523 kts | 132° |
| 2026-04-24 11:10 | 25.43913 | 33.28694 | 36833 ft | 523 kts | 132° |
| 2026-04-24 11:10 | 25.39878 | 33.35390 | 36830 ft | 524 kts | 132° |
| 2026-04-24 11:11 | 25.35833 | 33.42092 | 36836 ft | 524 kts | 132° |
| 2026-04-24 11:11 | 25.31792 | 33.48783 | 36829 ft | 524 kts | 132° |
| 2026-04-24 11:12 | 25.27769 | 33.55439 | 36833 ft | 524 kts | 132° |
| 2026-04-24 11:12 | 25.23711 | 33.62140 | 36817 ft | 524 kts | 132° |
| 2026-04-24 11:13 | 25.19659 | 33.68824 | 36827 ft | 524 kts | 132° |
| 2026-04-24 11:13 | 25.15617 | 33.75482 | 36836 ft | 524 kts | 132° |
| 2026-04-24 11:14 | 25.11532 | 33.82203 | 36824 ft | 524 kts | 133° |
| 2026-04-24 11:14 | 25.07474 | 33.88867 | 36833 ft | 524 kts | 133° |
| 2026-04-24 11:15 | 25.03419 | 33.95516 | 36823 ft | 524 kts | 133° |
| 2026-04-24 11:15 | 24.99329 | 34.02215 | 36815 ft | 525 kts | 133° |
| 2026-04-24 11:16 | 24.95275 | 34.08854 | 36824 ft | 524 kts | 133° |
| 2026-04-24 11:16 | 24.91187 | 34.15524 | 36834 ft | 524 kts | 133° |
| 2026-04-24 11:17 | 24.87087 | 34.22208 | 36828 ft | 525 kts | 133° |
| 2026-04-24 11:17 | 24.83000 | 34.28864 | 36833 ft | 525 kts | 133° |
| 2026-04-24 11:18 | 24.78900 | 34.35534 | 36818 ft | 525 kts | 133° |
| 2026-04-24 11:18 | 24.74822 | 34.42162 | 36834 ft | 526 kts | 133° |
| 2026-04-24 11:19 | 24.70708 | 34.48836 | 36826 ft | 527 kts | 133° |
| 2026-04-24 11:19 | 24.66595 | 34.55496 | 36824 ft | 527 kts | 133° |
| 2026-04-24 11:20 | 24.62460 | 34.62187 | 36818 ft | 527 kts | 133° |
| 2026-04-24 11:20 | 24.58358 | 34.68812 | 36820 ft | 527 kts | 133° |
| 2026-04-24 11:21 | 24.54207 | 34.75505 | 36815 ft | 527 kts | 133° |
| 2026-04-24 11:21 | 24.50099 | 34.82123 | 36833 ft | 527 kts | 133° |
| 2026-04-24 11:22 | 24.45956 | 34.88787 | 36814 ft | 527 kts | 133° |
| 2026-04-24 11:22 | 24.41848 | 34.95397 | 36815 ft | 527 kts | 133° |
| 2026-04-24 11:23 | 24.37701 | 35.02046 | 36813 ft | 527 kts | 134° |
| 2026-04-24 11:23 | 24.33565 | 35.08666 | 36814 ft | 527 kts | 133° |
| 2026-04-24 11:24 | 24.29415 | 35.15302 | 36812 ft | 528 kts | 134° |
| 2026-04-24 11:24 | 24.25264 | 35.21936 | 36807 ft | 528 kts | 133° |
| 2026-04-24 11:25 | 24.21101 | 35.28582 | 36804 ft | 529 kts | 134° |
| 2026-04-24 11:25 | 24.16951 | 35.35195 | 36805 ft | 528 kts | 134° |
| 2026-04-24 11:26 | 24.12759 | 35.41861 | 36810 ft | 529 kts | 134° |
| 2026-04-24 11:26 | 24.08595 | 35.48482 | 36812 ft | 530 kts | 134° |
| 2026-04-24 11:27 | 24.04404 | 35.55136 | 36813 ft | 530 kts | 134° |
| 2026-04-24 11:27 | 24.00224 | 35.61766 | 36815 ft | 531 kts | 134° |
| 2026-04-24 11:28 | 23.96035 | 35.68402 | 36815 ft | 531 kts | 133° |
| 2026-04-24 11:28 | 23.91851 | 35.75018 | 36810 ft | 531 kts | 134° |
| 2026-04-24 11:29 | 23.87621 | 35.81679 | 36796 ft | 531 kts | 134° |
| 2026-04-24 11:29 | 23.83408 | 35.88307 | 36795 ft | 531 kts | 134° |
| 2026-04-24 11:30 | 23.79186 | 35.94949 | 36795 ft | 531 kts | 134° |
| 2026-04-24 11:30 | 23.74985 | 36.01546 | 36785 ft | 532 kts | 134° |
| 2026-04-24 11:31 | 23.70769 | 36.08160 | 36786 ft | 531 kts | 134° |
| 2026-04-24 11:31 | 23.66546 | 36.14777 | 36785 ft | 531 kts | 134° |
| 2026-04-24 11:32 | 23.62310 | 36.21408 | 36786 ft | 532 kts | 134° |
| 2026-04-24 11:32 | 23.58067 | 36.28033 | 36781 ft | 532 kts | 134° |
| 2026-04-24 11:33 | 23.53845 | 36.34622 | 36775 ft | 532 kts | 134° |
| 2026-04-24 11:33 | 23.49596 | 36.41240 | 36777 ft | 532 kts | 134° |
| 2026-04-24 11:34 | 23.45358 | 36.47842 | 36777 ft | 532 kts | 134° |
| 2026-04-24 11:34 | 23.41085 | 36.54474 | 36768 ft | 533 kts | 134° |
| 2026-04-24 11:35 | 23.36833 | 36.61082 | 36766 ft | 534 kts | 134° |
| 2026-04-24 11:35 | 23.32573 | 36.67682 | 36766 ft | 534 kts | 134° |
| 2026-04-24 11:36 | 23.28308 | 36.74288 | 36767 ft | 533 kts | 134° |
| 2026-04-24 11:36 | 23.24039 | 36.80897 | 36766 ft | 533 kts | 133° |
| 2026-04-24 11:37 | 23.19800 | 36.87451 | 36767 ft | 533 kts | 134° |
| 2026-04-24 11:37 | 23.15532 | 36.94038 | 36766 ft | 533 kts | 133° |
| 2026-04-24 11:38 | 23.11236 | 37.00650 | 36768 ft | 533 kts | 134° |
| 2026-04-24 11:38 | 23.06975 | 37.07198 | 36767 ft | 534 kts | 134° |
| 2026-04-24 11:39 | 23.02661 | 37.13831 | 36766 ft | 535 kts | 134° |
| 2026-04-24 11:39 | 22.98386 | 37.20382 | 36767 ft | 533 kts | 134° |
| 2026-04-24 11:40 | 22.94073 | 37.26959 | 36768 ft | 535 kts | 134° |
| 2026-04-24 11:40 | 22.89757 | 37.33530 | 36767 ft | 535 kts | 134° |
| 2026-04-24 11:41 | 22.85456 | 37.40068 | 36766 ft | 535 kts | 134° |
| 2026-04-24 11:41 | 22.81120 | 37.46657 | 36765 ft | 535 kts | 134° |
| 2026-04-24 11:42 | 22.77519 | 37.52126 | 36767 ft | 537 kts | 134° |
| 2026-04-24 11:42 | 22.73170 | 37.58738 | 36766 ft | 537 kts | 134° |
| 2026-04-24 11:43 | 22.68843 | 37.65318 | 36768 ft | 537 kts | 133° |
| 2026-04-24 11:43 | 22.64537 | 37.71882 | 36768 ft | 537 kts | 133° |
| 2026-04-24 11:44 | 22.60213 | 37.78469 | 36768 ft | 537 kts | 134° |
| 2026-04-24 11:44 | 22.55864 | 37.85091 | 36766 ft | 537 kts | 133° |
| 2026-04-24 11:45 | 22.51558 | 37.91633 | 36768 ft | 538 kts | 134° |
| 2026-04-24 11:45 | 22.47208 | 37.98234 | 36766 ft | 539 kts | 133° |
| 2026-04-24 11:46 | 22.42862 | 38.04832 | 36767 ft | 539 kts | 133° |
| 2026-04-24 11:46 | 22.38486 | 38.11462 | 36774 ft | 540 kts | 133° |
| 2026-04-24 11:47 | 22.36324 | 38.14738 | 36393 ft | 534 kts | 133° |
| 2026-04-24 11:47 | 22.34157 | 38.18016 | 35600 ft | 536 kts | 133° |
| 2026-04-24 11:47 | 22.32010 | 38.21258 | 34930 ft | 534 kts | 133° |